Time;durP1;ratioP1;P1;durP2;ratioP2;P2;SDS_P1;SDS_P2;PMS_P1;PMS_P2;Temp;Humidity;BMP_temperature;BMP_pressure;BME280_temperature;BME280_humidity;BME280_pressure;Samples;Min_cycle;Max_cycle;Signal;HPM_P1;HPM_P2
2020/12/04 08:24:06;;;;;;;95.70;36.60;;;1.40;94.80;;;;;;5364438;23;16138226;-73
2020/12/04 08:26:32;;;;;;;133.32;48.30;;;1.40;95.00;;;;;;6026755;23;20543;-69
2020/12/04 08:29:01;;;;;;;112.00;44.65;;;1.40;95.20;;;;;;6012624;23;20341;-72
2020/12/04 08:31:30;;;;;;;120.05;45.97;;;1.40;95.40;;;;;;5983272;23;20591;-73
2020/12/04 08:33:59;;;;;;;115.20;47.33;;;1.50;95.50;;;;;;6036106;23;20509;-71
2020/12/04 08:36:27;;;;;;;109.63;45.20;;;1.60;95.20;;;;;;6052751;23;20136;-68
2020/12/04 08:38:55;;;;;;;110.45;44.20;;;1.50;95.10;;;;;;6061226;23;20370;-69
2020/12/04 08:41:35;;;;;;;102.03;43.60;;;1.60;94.90;;;;;;6058563;23;20676;-70
2020/12/04 08:44:02;;;;;;;109.43;44.70;;;1.60;94.30;;;;;;6011336;23;20775;-70
2020/12/04 08:46:30;;;;;;;104.40;44.00;;;1.60;94.40;;;;;;6065802;23;20620;-73
2020/12/04 08:49:03;;;;;;;114.50;49.97;;;1.60;94.50;;;;;;6032990;23;20412;-76
2020/12/04 08:51:29;;;;;;;107.70;47.30;;;1.70;93.90;;;;;;6046201;23;20429;-69
2020/12/04 08:53:54;;;;;;;116.60;49.08;;;1.60;94.10;;;;;;6059754;23;20013;-73
2020/12/04 08:56:24;;;;;;;107.82;45.47;;;1.60;94.00;;;;;;6059109;23;20357;-71
2020/12/04 08:58:50;;;;;;;102.47;41.97;;;1.60;94.10;;;;;;6065713;23;20009;-74
2020/12/04 09:01:20;;;;;;;104.63;44.70;;;1.70;94.50;;;;;;6068453;23;20017;-70
2020/12/04 09:03:56;;;;;;;99.75;44.78;;;1.70;94.30;;;;;;6061917;23;20800;-77
2020/12/04 09:06:22;;;;;;;98.35;43.20;;;1.70;94.20;;;;;;6046729;23;20361;-73
2020/12/04 09:08:51;;;;;;;95.05;42.33;;;1.80;94.30;;;;;;6057607;23;20373;-71
2020/12/04 09:11:20;;;;;;;106.43;44.38;;;1.80;94.30;;;;;;6036338;23;20036;-72
2020/12/04 09:13:45;;;;;;;96.53;42.88;;;1.80;94.00;;;;;;6055051;23;20586;-75
2020/12/04 09:16:19;;;;;;;90.38;41.92;;;1.80;93.80;;;;;;6035269;23;20774;-74
2020/12/04 09:18:47;;;;;;;80.72;35.58;;;1.80;93.50;;;;;;6068678;23;20418;-72
2020/12/04 09:21:28;;;;;;;86.43;39.90;;;1.80;93.90;;;;;;6023186;23;20413;-72
2020/12/04 09:24:12;;;;;;;85.07;39.25;;;1.90;94.30;;;;;;6016675;23;20355;-75
2020/12/04 09:26:43;;;;;;;80.95;38.58;;;1.90;94.10;;;;;;6002448;23;20500;-70
2020/12/04 09:29:09;;;;;;;80.07;36.78;;;1.90;93.70;;;;;;6018521;23;21083;-74
2020/12/04 09:31:58;;;;;;;79.85;35.10;;;1.90;93.90;;;;;;6018205;23;20418;-70
2020/12/04 09:34:34;;;;;;;76.03;35.92;;;1.90;94.10;;;;;;6001360;23;20480;-73
2020/12/04 09:37:29;;;;;;;77.50;36.28;;;2.00;94.00;;;;;;6027670;23;20296;-69
2020/12/04 09:40:02;;;;;;;78.22;35.95;;;2.00;93.70;;;;;;6040364;23;20290;-73
2020/12/04 09:42:31;;;;;;;82.85;36.65;;;2.00;94.00;;;;;;6029977;23;20465;-73
2020/12/04 09:45:07;;;;;;;74.22;34.50;;;2.10;94.10;;;;;;6032324;23;20342;-79
2020/12/04 09:47:44;;;;;;;76.95;36.80;;;2.20;94.70;;;;;;6039653;23;20302;-78
2020/12/04 09:53:38;;;;;;;76.35;36.15;;;2.30;93.90;;;;;;6006678;23;20353;-78
2020/12/04 09:56:03;;;;;;;71.68;33.88;;;2.30;94.00;;;;;;6038016;23;20409;-72
2020/12/04 09:58:29;;;;;;;79.82;34.97;;;2.30;94.00;;;;;;6020253;23;20622;-71
2020/12/04 10:39:23;;;;;;;62.63;31.40;;;2.30;92.70;;;;;;6039645;23;20483;-70
2020/12/04 10:41:48;;;;;;;70.07;35.50;;;2.40;92.90;;;;;;6041629;23;20477;-66
2020/12/04 10:44:14;;;;;;;66.88;34.13;;;2.40;92.50;;;;;;6057057;23;20458;-67
2020/12/04 10:46:42;;;;;;;68.03;34.88;;;2.40;92.60;;;;;;6061164;23;20371;-64
2020/12/04 10:49:09;;;;;;;67.50;35.10;;;2.30;92.60;;;;;;6005455;23;20454;-69
2020/12/04 10:51:39;;;;;;;68.32;35.20;;;2.30;92.60;;;;;;6016662;23;20485;-68
2020/12/04 10:54:05;;;;;;;72.60;36.17;;;2.30;92.60;;;;;;6039498;23;20437;-67
2020/12/04 10:56:35;;;;;;;67.47;34.08;;;2.30;92.70;;;;;;6016380;23;20493;-73
2020/12/04 10:59:01;;;;;;;76.90;35.83;;;2.30;93.00;;;;;;6035692;23;20510;-66
2020/12/04 11:01:43;;;;;;;65.82;32.92;;;2.30;93.00;;;;;;6039759;23;20337;-66
2020/12/04 11:06:56;;;;;;;64.82;33.90;;;2.40;92.90;;;;;;6045019;23;20437;-68
2020/12/04 11:09:22;;;;;;;64.50;33.85;;;2.40;92.40;;;;;;6039879;23;20390;-71
2020/12/04 11:11:58;;;;;;;65.30;33.53;;;2.30;92.40;;;;;;6017957;23;20571;-73
2020/12/04 11:14:24;;;;;;;64.10;34.03;;;2.40;92.60;;;;;;6011260;23;20592;-66
2020/12/04 11:16:53;;;;;;;63.70;32.53;;;2.30;92.40;;;;;;6009471;23;20404;-71
2020/12/04 11:19:21;;;;;;;61.45;34.08;;;2.40;92.60;;;;;;6026793;23;20460;-70
2020/12/04 11:21:47;;;;;;;68.07;33.38;;;2.30;92.30;;;;;;6005012;23;20557;-74
2020/12/04 11:24:13;;;;;;;68.07;34.97;;;2.30;92.50;;;;;;6007333;23;20406;-74
2020/12/04 11:26:41;;;;;;;69.50;35.92;;;2.30;92.60;;;;;;6035090;23;20447;-69
2020/12/04 11:29:08;;;;;;;73.10;35.63;;;2.30;92.30;;;;;;6039380;23;20449;-72
2020/12/04 11:31:36;;;;;;;69.85;35.67;;;2.30;90.90;;;;;;6041930;23;20564;-73
2020/12/04 11:34:02;;;;;;;70.45;36.10;;;2.20;91.50;;;;;;6043227;23;20280;-69
2020/12/04 11:36:33;;;;;;;65.63;34.85;;;2.20;91.80;;;;;;6038733;23;20339;-69
2020/12/04 11:39:03;;;;;;;69.20;35.45;;;2.20;92.10;;;;;;6019265;23;20020;-71
2020/12/04 11:41:35;;;;;;;65.40;33.95;;;2.20;92.00;;;;;;6044267;23;20385;-70
2020/12/04 11:44:04;;;;;;;66.28;32.45;;;2.20;92.10;;;;;;6044344;23;20072;-73
2020/12/04 11:46:32;;;;;;;67.60;33.95;;;2.20;92.10;;;;;;6023119;23;20454;-70
2020/12/04 11:49:11;;;;;;;57.28;30.60;;;2.20;91.90;;;;;;6040203;23;20009;-73
2020/12/04 11:51:49;;;;;;;57.25;30.08;;;2.20;92.20;;;;;;6036154;23;20390;-71
2020/12/04 11:54:14;;;;;;;60.05;31.83;;;2.20;92.40;;;;;;6036869;23;20291;-73
2020/12/04 11:57:05;;;;;;;;;;;;;;;;;;;;;
2020/12/04 11:59:39;;;;;;;56.67;29.63;;;2.30;92.40;;;;;;6060842;23;20395;-69
2020/12/04 12:02:06;;;;;;;56.85;29.63;;;2.30;92.10;;;;;;6029012;23;20409;-72
2020/12/04 12:04:36;;;;;;;65.35;31.25;;;2.30;91.80;;;;;;6056357;23;20089;-66
2020/12/04 12:07:04;;;;;;;58.58;29.67;;;2.30;91.70;;;;;;6050388;23;20394;-73
2020/12/04 12:09:30;;;;;;;53.20;27.70;;;2.30;91.20;;;;;;6044067;23;20462;-72
2020/12/04 12:11:56;;;;;;;55.72;28.55;;;2.20;91.60;;;;;;6044582;23;20402;-66
2020/12/04 12:14:22;;;;;;;63.60;30.80;;;2.20;92.10;;;;;;6041008;23;20420;-69
2020/12/04 12:16:57;;;;;;;62.97;31.85;;;2.20;92.00;;;;;;6010717;23;20432;-68
2020/12/04 12:19:26;;;;;;;65.35;31.83;;;2.20;92.10;;;;;;6039676;23;20037;-71
2020/12/04 12:21:54;;;;;;;61.33;28.90;;;2.30;91.90;;;;;;6023172;23;20017;-72
2020/12/04 12:24:20;;;;;;;62.17;29.80;;;2.20;92.10;;;;;;6006472;23;20542;-72
2020/12/04 12:26:47;;;;;;;63.20;31.80;;;2.20;92.10;;;;;;6035235;23;20422;-73
2020/12/04 12:29:34;;;;;;;70.47;31.77;;;2.20;91.80;;;;;;6037921;23;20002;-75
2020/12/04 12:32:04;;;;;;;61.90;30.70;;;2.20;91.30;;;;;;6000331;23;20045;-73
2020/12/04 12:37:32;;;;;;;70.75;33.55;;;2.10;91.60;;;;;;6048258;23;20314;-72
2020/12/04 12:40:07;;;;;;;66.68;32.28;;;2.10;91.30;;;;;;6042032;23;20264;-74
2020/12/04 12:42:42;;;;;;;76.13;33.97;;;2.00;91.50;;;;;;6016125;23;20422;-72
2020/12/04 12:45:09;;;;;;;78.80;36.10;;;2.00;91.60;;;;;;6011721;23;20382;-72
2020/12/04 12:47:35;;;;;;;84.70;38.60;;;2.00;91.50;;;;;;6043397;23;20414;-71
2020/12/04 12:50:11;;;;;;;84.00;39.22;;;1.90;91.40;;;;;;6015910;23;20449;-75
2020/12/04 12:52:39;;;;;;;88.78;40.53;;;1.90;91.10;;;;;;6014160;23;20010;-76
2020/12/04 12:55:06;;;;;;;101.88;44.20;;;1.90;91.20;;;;;;6002975;23;20425;-74
2020/12/04 12:57:32;;;;;;;97.88;42.15;;;1.90;91.20;;;;;;6008406;23;20276;-73
2020/12/04 13:00:02;;;;;;;96.10;41.33;;;1.90;91.30;;;;;;6039784;23;20349;-67
2020/12/04 13:02:34;;;;;;;96.25;38.75;;;1.90;91.00;;;;;;6046209;23;20611;-75
2020/12/04 13:05:32;;;;;;;96.18;41.53;;;1.90;91.50;;;;;;6037959;23;20016;-75
2020/12/04 13:07:55;;;;;;;99.40;42.97;;;1.90;91.30;;;;;;6042973;23;20464;-74
2020/12/04 13:10:21;;;;;;;100.50;43.75;;;1.90;91.50;;;;;;6016626;23;20412;-72
2020/12/04 13:12:47;;;;;;;114.03;48.22;;;1.90;91.70;;;;;;6013082;23;20426;-76
2020/12/04 13:15:18;;;;;;;109.93;46.20;;;2.00;91.60;;;;;;6012131;23;20319;-77
